Marquette, MI

3:51 AM EDT on March 29, 2015 (GMT -0400)
Munising | | Change Station
CLOSE
Current Station
Airport
Location: Munising,
Elevation: 614 ft
Nearby Weather Stations

Elev 614 ft 46.41 °N, 86.65 °W | Updated 55 minutes ago

Clear
Clear
28 °F
Feels Like 19 °F
N
9
Wind Variable Wind from South
Gusts 20 mph

Today
High -- | Low -- °F
--% Chance of Precip.
Yesterday
High -- | Low -- °F
Precip. -- in
7:35 AM 8:14 PM
Waxing Gibbous, 69% visible
Pressure 30.04 in
Visibility -9999.0 miles
Clouds
Windchill 19 °F
Dew Point 20 °F
Humidity 72%
Rainfall 0.00 in
Snow Depth Not available.
UV Not available.
Pollen 2.60 out of 12
Air Quality Not available.
Flu Activity Not available.
METAR KP53 290656Z AUTO 19008KT M02/M07 A3001 RMK AO1 SLP171 T10221067

More Conditions Fewer Conditions

Pressure 30.04 in
Visibility -9999.0 miles
Clouds
Windchill 19 °F
Dew Point 20 °F
Humidity 72%
Rainfall 0.00 in
Snow Depth Not available.
UV Not available.
Pollen 2.60 out of 12
Air Quality Not available.
Flu Activity Not available.
METAR KP53 290656Z AUTO 19008KT M02/M07 A3001 RMK AO1 SLP171 T10221067

More Conditions Fewer Conditions

10-Day Weather Forecast

Almanac

Astronomy

Mar. 29, 2015 Rise Set
Actual Time
Civil Twilight
Nautical Twilight
Astronomical Twilight
Moon
Length of Visible Light
Length of Day
Tomorrow will be .
, % of the Moon is Illuminated

Today's Extremes

State Highs State Lows

Community

WunderPhotos

Upload Photos

1,809,187 photos uploaded!

WunderBlogs® & News

Nearby

Air Quality

  Air Quality AQ Index Pollutant
Not available.

Snow Depth

Station Depth Elevation

Earthquake Activity

City Distance Mag. Time & Date
Minimum magnitude displayed is 2.5.

Coastal Water Temperatures

Place Temperature

Stations

Nearby Weather Stations

Station Location Temp. Windchill Dew Point Humidity Wind Precip. Elev Updated Type